Time;durP1;ratioP1;P1;durP2;ratioP2;P2;SDS_P1;SDS_P2;PMS_P1;PMS_P2;Temp;Humidity;BMP_temperature;BMP_pressure;BME280_temperature;BME280_humidity;BME280_pressure;Samples;Min_cycle;Max_cycle;Signal;HPM_P1;HPM_P2
2021/06/27 00:00:49;;;;;;;26.3;24.1;;;;;;;20.1;55.8;101510;;;;
2021/06/27 00:10:51;;;;;;;26.3;24.1;;;;;;;20.0;55.8;101510;;;;
2021/06/27 00:12:49;;;;;;;26.3;24.1;;;;;;;20.1;56.5;101510;;;;
2021/06/27 00:14:49;;;;;;;27.3;24.8;;;;;;;20.3;55.2;101510;;;;
2021/06/27 00:16:52;;;;;;;27.3;24.8;;;;;;;20.1;55.6;101520;;;;
2021/06/27 00:20:49;;;;;;;27.3;24.8;;;;;;;19.9;56.5;101510;;;;
2021/06/27 00:22:49;;;;;;;27.3;24.8;;;;;;;19.8;56.6;101510;;;;
2021/06/27 00:24:49;;;;;;;27.3;24.8;;;;;;;19.9;56.6;101510;;;;
2021/06/27 00:26:49;;;;;;;27.3;24.8;;;;;;;19.8;57.4;101500;;;;
2021/06/27 00:30:51;;;;;;;27.3;24.8;;;;;;;19.7;57.6;101500;;;;
2021/06/27 00:32:49;;;;;;;27.3;24.8;;;;;;;19.6;58.0;101500;;;;
2021/06/27 00:34:49;;;;;;;28.4;25.9;;;;;;;19.7;57.6;101500;;;;
2021/06/27 00:36:49;;;;;;;28.4;25.9;;;;;;;19.6;58.0;101500;;;;
2021/06/27 00:38:49;;;;;;;28.4;25.9;;;;;;;19.7;57.8;101500;;;;
2021/06/27 00:44:49;;;;;;;28.4;25.9;;;;;;;19.5;58.4;101500;;;;
2021/06/27 00:46:49;;;;;;;28.4;25.9;;;;;;;19.6;58.3;101500;;;;
2021/06/27 00:52:49;;;;;;;28.4;25.9;;;;;;;19.5;58.4;101490;;;;
2021/06/27 00:54:49;;;;;;;28.9;26.2;;;;;;;19.7;57.6;101490;;;;
2021/06/27 00:56:49;;;;;;;28.9;26.2;;;;;;;19.6;58.4;101490;;;;
2021/06/27 00:58:50;;;;;;;28.9;26.2;;;;;;;19.5;59.0;101490;;;;
2021/06/27 01:00:49;;;;;;;28.9;26.2;;;;;;;19.4;59.2;101490;;;;
2021/06/27 01:04:49;;;;;;;28.9;26.2;;;;;;;19.5;58.7;101490;;;;
2021/06/27 01:06:49;;;;;;;28.9;26.2;;;;;;;19.3;59.3;101490;;;;
2021/06/27 01:08:50;;;;;;;28.9;26.2;;;;;;;19.4;59.0;101480;;;;
2021/06/27 01:10:49;;;;;;;28.9;26.2;;;;;;;19.5;58.6;101490;;;;
2021/06/27 01:12:49;;;;;;;28.9;26.2;;;;;;;19.3;59.6;101480;;;;
2021/06/27 01:20:49;;;;;;;30.5;27.7;;;;;;;19.2;60.2;101490;;;;
2021/06/27 01:24:50;;;;;;;30.5;27.7;;;;;;;19.3;59.6;101490;;;;
2021/06/27 01:26:49;;;;;;;30.5;27.7;;;;;;;19.2;60.0;101480;;;;
2021/06/27 01:28:49;;;;;;;30.5;27.7;;;;;;;19.4;59.2;101480;;;;
2021/06/27 01:30:49;;;;;;;30.5;27.7;;;;;;;19.3;59.9;101480;;;;
2021/06/27 01:32:49;;;;;;;30.5;27.7;;;;;;;19.2;60.7;101470;;;;
2021/06/27 01:34:49;;;;;;;29.2;26.7;;;;;;;19.3;60.3;101470;;;;
2021/06/27 01:38:49;;;;;;;29.2;26.7;;;;;;;19.2;60.1;101470;;;;
2021/06/27 01:40:49;;;;;;;29.2;26.7;;;;;;;19.3;60.1;101480;;;;
2021/06/27 01:42:49;;;;;;;29.2;26.7;;;;;;;19.2;60.5;101470;;;;
2021/06/27 01:48:49;;;;;;;29.2;26.7;;;;;;;19.0;61.3;101470;;;;
2021/06/27 01:50:49;;;;;;;29.2;26.7;;;;;;;19.1;60.5;101470;;;;
2021/06/27 01:52:49;;;;;;;29.2;26.7;;;;;;;19.2;61.0;101470;;;;
2021/06/27 01:54:49;;;;;;;28.8;26.2;;;;;;;19.1;61.2;101470;;;;
2021/06/27 01:56:49;;;;;;;28.8;26.2;;;;;;;19.0;60.9;101470;;;;
2021/06/27 01:58:51;;;;;;;28.8;26.2;;;;;;;19.1;60.9;101470;;;;
2021/06/27 02:02:49;;;;;;;28.8;26.2;;;;;;;19.0;61.4;101470;;;;
2021/06/27 02:06:49;;;;;;;28.8;26.2;;;;;;;18.9;62.1;101470;;;;
2021/06/27 02:08:49;;;;;;;28.8;26.2;;;;;;;19.0;61.8;101470;;;;
2021/06/27 02:10:49;;;;;;;28.8;26.2;;;;;;;19.1;60.6;101470;;;;
2021/06/27 02:14:49;;;;;;;26.8;24.3;;;;;;;19.3;60.3;101470;;;;
2021/06/27 02:45:09;;;;;;;27.7;25.1;;;;;;;19.1;61.2;101470;;;;
2021/06/27 02:57:09;;;;;;;27.2;24.7;;;;;;;19.0;62.0;101450;;;;
2021/06/27 02:59:09;;;;;;;27.2;24.7;;;;;;;18.9;61.9;101460;;;;
2021/06/27 03:01:09;;;;;;;27.2;24.7;;;;;;;19.1;61.4;101450;;;;
2021/06/27 03:03:09;;;;;;;27.2;24.7;;;;;;;18.8;62.9;101450;;;;
2021/06/27 03:05:09;;;;;;;27.2;24.7;;;;;;;19.0;61.2;101440;;;;
2021/06/27 03:07:09;;;;;;;27.2;24.7;;;;;;;18.8;62.2;101440;;;;
2021/06/27 03:13:09;;;;;;;27.2;24.7;;;;;;;18.7;62.0;101450;;;;
2021/06/27 03:15:09;;;;;;;27.6;24.9;;;;;;;18.8;61.9;101440;;;;
2021/06/27 03:19:14;;;;;;;27.6;24.9;;;;;;;18.6;63.1;101440;;;;
2021/06/27 03:21:09;;;;;;;27.6;24.9;;;;;;;18.7;62.2;101450;;;;
2021/06/27 03:23:09;;;;;;;27.6;24.9;;;;;;;18.6;62.9;101440;;;;
2021/06/27 03:25:09;;;;;;;27.6;24.9;;;;;;;18.4;63.8;101440;;;;
2021/06/27 03:31:09;;;;;;;27.6;24.9;;;;;;;18.5;63.6;101440;;;;
2021/06/27 03:39:11;;;;;;;27.7;25.1;;;;;;;18.4;63.4;101440;;;;
2021/06/27 03:41:10;;;;;;;27.7;25.1;;;;;;;18.5;63.0;101440;;;;
2021/06/27 03:43:09;;;;;;;27.7;25.1;;;;;;;18.3;64.0;101440;;;;
2021/06/27 03:45:09;;;;;;;27.7;25.1;;;;;;;18.2;63.5;101440;;;;
2021/06/27 03:47:09;;;;;;;27.7;25.1;;;;;;;18.3;63.7;101440;;;;
2021/06/27 03:51:09;;;;;;;27.7;25.1;;;;;;;18.4;63.4;101450;;;;
2021/06/27 03:55:09;;;;;;;28.4;25.7;;;;;;;18.5;62.3;101460;;;;
2021/06/27 04:01:09;;;;;;;28.4;25.7;;;;;;;18.4;62.8;101450;;;;
2021/06/27 04:05:09;;;;;;;28.4;25.7;;;;;;;18.3;64.5;101440;;;;
2021/06/27 04:07:09;;;;;;;28.4;25.7;;;;;;;18.2;64.9;101440;;;;
2021/06/27 04:13:09;;;;;;;28.4;25.7;;;;;;;18.3;63.6;101420;;;;
2021/06/27 04:15:09;;;;;;;29.0;26.2;;;;;;;18.5;63.7;101420;;;;
2021/06/27 04:25:09;;;;;;;29.0;26.2;;;;;;;18.6;63.5;101420;;;;
2021/06/27 04:27:09;;;;;;;29.0;26.2;;;;;;;18.5;64.7;101420;;;;
2021/06/27 04:31:09;;;;;;;29.0;26.2;;;;;;;18.7;63.0;101410;;;;
2021/06/27 04:33:09;;;;;;;29.0;26.2;;;;;;;18.6;64.3;101410;;;;
2021/06/27 04:35:09;;;;;;;27.8;25.3;;;;;;;18.8;63.5;101410;;;;
2021/06/27 04:37:09;;;;;;;27.8;25.3;;;;;;;18.9;63.7;101410;;;;
2021/06/27 04:39:10;;;;;;;27.8;25.3;;;;;;;18.7;63.9;101410;;;;
2021/06/27 04:41:09;;;;;;;27.8;25.3;;;;;;;18.8;63.5;101410;;;;
2021/06/27 04:53:09;;;;;;;27.8;25.3;;;;;;;18.9;63.6;101400;;;;
2021/06/27 04:57:09;;;;;;;29.9;27.1;;;;;;;18.8;64.2;101390;;;;
2021/06/27 05:03:09;;;;;;;29.9;27.1;;;;;;;18.9;64.3;101380;;;;
2021/06/27 05:07:09;;;;;;;29.9;27.1;;;;;;;19.0;63.8;101390;;;;
2021/06/27 05:11:09;;;;;;;29.9;27.1;;;;;;;18.9;64.6;101380;;;;
2021/06/27 05:13:09;;;;;;;29.9;27.1;;;;;;;19.1;63.9;101380;;;;
2021/06/27 05:15:09;;;;;;;27.8;25.2;;;;;;;19.2;63.0;101380;;;;
2021/06/27 05:17:09;;;;;;;27.8;25.2;;;;;;;19.1;63.7;101370;;;;
2021/06/27 05:19:09;;;;;;;27.8;25.2;;;;;;;19.2;63.4;101370;;;;
2021/06/27 05:21:09;;;;;;;27.8;25.2;;;;;;;19.1;63.8;101370;;;;
2021/06/27 05:23:09;;;;;;;27.8;25.2;;;;;;;19.3;63.3;101380;;;;
2021/06/27 05:25:09;;;;;;;27.8;25.2;;;;;;;19.4;62.8;101380;;;;
2021/06/27 05:27:09;;;;;;;27.8;25.2;;;;;;;19.3;63.5;101380;;;;
2021/06/27 05:29:09;;;;;;;27.8;25.2;;;;;;;19.4;63.6;101380;;;;
2021/06/27 05:31:09;;;;;;;27.8;25.2;;;;;;;19.5;63.1;101380;;;;
2021/06/27 05:43:09;;;;;;;28.5;25.9;;;;;;;19.4;62.9;101380;;;;
2021/06/27 05:45:09;;;;;;;28.5;25.9;;;;;;;19.6;62.8;101380;;;;
2021/06/27 05:47:09;;;;;;;28.5;25.9;;;;;;;19.7;62.5;101380;;;;
2021/06/27 05:49:09;;;;;;;28.5;25.9;;;;;;;19.6;62.8;101380;;;;
2021/06/27 05:51:09;;;;;;;28.5;25.9;;;;;;;19.8;61.8;101380;;;;
2021/06/27 05:55:09;;;;;;;27.0;24.5;;;;;;;19.9;62.4;101380;;;;
2021/06/27 05:57:09;;;;;;;27.0;24.5;;;;;;;20.0;61.9;101380;;;;
2021/06/27 06:01:09;;;;;;;27.0;24.5;;;;;;;20.1;61.3;101390;;;;
2021/06/27 06:11:09;;;;;;;27.0;24.5;;;;;;;20.3;61.5;101400;;;;
2021/06/27 06:13:09;;;;;;;27.0;24.5;;;;;;;20.5;60.7;101390;;;;
2021/06/27 06:17:09;;;;;;;25.8;23.5;;;;;;;20.3;61.3;101390;;;;
2021/06/27 06:19:09;;;;;;;25.8;23.5;;;;;;;20.1;62.2;101390;;;;
2021/06/27 06:21:09;;;;;;;25.8;23.5;;;;;;;20.4;61.2;101390;;;;
2021/06/27 06:25:09;;;;;;;25.8;23.5;;;;;;;20.6;61.0;101390;;;;
2021/06/27 06:27:09;;;;;;;25.8;23.5;;;;;;;20.8;60.7;101390;;;;
2021/06/27 06:29:09;;;;;;;25.8;23.5;;;;;;;21.0;60.8;101390;;;;
2021/06/27 06:31:09;;;;;;;25.8;23.5;;;;;;;21.1;60.6;101390;;;;
2021/06/27 06:33:11;;;;;;;25.8;23.5;;;;;;;21.0;60.0;101390;;;;
2021/06/27 06:37:09;;;;;;;23.9;21.7;;;;;;;20.9;60.4;101390;;;;
2021/06/27 06:39:10;;;;;;;23.9;21.7;;;;;;;21.1;60.3;101390;;;;
2021/06/27 06:41:09;;;;;;;23.9;21.7;;;;;;;21.3;59.5;101390;;;;
2021/06/27 06:45:09;;;;;;;23.9;21.7;;;;;;;21.4;59.4;101390;;;;
2021/06/27 06:47:09;;;;;;;23.9;21.7;;;;;;;21.2;59.5;101390;;;;
2021/06/27 06:49:09;;;;;;;23.9;21.7;;;;;;;21.3;59.6;101390;;;;
2021/06/27 06:51:09;;;;;;;23.9;21.7;;;;;;;21.5;58.9;101390;;;;
2021/06/27 06:53:09;;;;;;;23.9;21.7;;;;;;;21.7;58.7;101390;;;;
2021/06/27 06:55:09;;;;;;;22.7;20.6;;;;;;;21.6;58.2;101390;;;;
2021/06/27 06:57:09;;;;;;;22.7;20.6;;;;;;;21.7;58.7;101390;;;;
2021/06/27 06:59:09;;;;;;;22.7;20.6;;;;;;;21.6;58.7;101390;;;;
2021/06/27 07:01:09;;;;;;;22.7;20.6;;;;;;;21.9;58.2;101390;;;;
2021/06/27 07:05:12;;;;;;;22.7;20.6;;;;;;;21.8;58.0;101390;;;;
2021/06/27 07:07:09;;;;;;;22.7;20.6;;;;;;;21.9;58.4;101390;;;;
2021/06/27 07:11:09;;;;;;;22.7;20.6;;;;;;;22.0;58.0;101400;;;;
2021/06/27 07:13:09;;;;;;;22.7;20.6;;;;;;;22.1;58.3;101390;;;;
2021/06/27 07:19:09;;;;;;;22.1;20.1;;;;;;;22.0;58.3;101400;;;;
2021/06/27 07:21:09;;;;;;;22.1;20.1;;;;;;;22.4;57.5;101400;;;;
2021/06/27 07:25:09;;;;;;;22.1;20.1;;;;;;;22.3;57.2;101400;;;;
2021/06/27 07:27:09;;;;;;;22.1;20.1;;;;;;;22.6;57.2;101400;;;;
2021/06/27 07:29:09;;;;;;;22.1;20.1;;;;;;;22.8;56.8;101400;;;;
2021/06/27 07:31:09;;;;;;;22.1;20.1;;;;;;;22.6;56.6;101390;;;;
2021/06/27 07:33:11;;;;;;;22.1;20.1;;;;;;;22.9;56.1;101390;;;;
2021/06/27 07:35:16;;;;;;;21.2;19.4;;;;;;;22.6;56.1;101380;;;;
2021/06/27 07:39:09;;;;;;;21.2;19.4;;;;;;;22.8;56.4;101390;;;;
2021/06/27 07:41:09;;;;;;;21.2;19.4;;;;;;;22.9;55.8;101390;;;;
2021/06/27 07:43:09;;;;;;;21.2;19.4;;;;;;;23.0;56.2;101390;;;;
2021/06/27 07:45:09;;;;;;;21.2;19.4;;;;;;;23.1;55.1;101390;;;;
2021/06/27 07:47:09;;;;;;;21.2;19.4;;;;;;;23.2;55.6;101390;;;;
2021/06/27 07:49:09;;;;;;;21.2;19.4;;;;;;;23.3;55.0;101380;;;;
2021/06/27 07:51:09;;;;;;;21.2;19.4;;;;;;;23.0;55.6;101390;;;;
2021/06/27 07:53:09;;;;;;;21.2;19.4;;;;;;;23.1;55.7;101380;;;;
2021/06/27 07:57:09;;;;;;;19.9;18.2;;;;;;;23.3;55.4;101380;;;;
2021/06/27 07:59:09;;;;;;;19.9;18.2;;;;;;;23.4;55.5;101380;;;;
2021/06/27 08:01:09;;;;;;;19.9;18.2;;;;;;;23.6;54.9;101380;;;;
2021/06/27 08:03:09;;;;;;;19.9;18.2;;;;;;;23.7;54.1;101380;;;;
2021/06/27 08:05:09;;;;;;;19.9;18.2;;;;;;;23.8;54.6;101380;;;;
2021/06/27 08:07:09;;;;;;;19.9;18.2;;;;;;;23.9;54.2;101380;;;;
2021/06/27 08:09:09;;;;;;;19.9;18.2;;;;;;;23.8;53.5;101380;;;;
2021/06/27 08:13:09;;;;;;;19.9;18.2;;;;;;;24.0;54.1;101380;;;;
2021/06/27 08:15:09;;;;;;;17.5;16.0;;;;;;;24.2;53.5;101390;;;;
2021/06/27 08:23:09;;;;;;;17.5;16.0;;;;;;;24.4;53.4;101390;;;;
2021/06/27 08:27:09;;;;;;;17.5;16.0;;;;;;;24.5;51.9;101390;;;;
2021/06/27 08:29:09;;;;;;;17.5;16.0;;;;;;;24.6;52.1;101390;;;;
2021/06/27 08:31:09;;;;;;;17.5;16.0;;;;;;;24.5;51.6;101390;;;;
2021/06/27 08:35:09;;;;;;;16.2;14.8;;;;;;;24.6;51.7;101400;;;;
2021/06/27 08:37:09;;;;;;;16.2;14.8;;;;;;;24.7;51.4;101400;;;;
2021/06/27 08:39:09;;;;;;;16.2;14.8;;;;;;;24.6;51.4;101390;;;;
2021/06/27 08:43:09;;;;;;;16.2;14.8;;;;;;;24.5;51.8;101390;;;;
2021/06/27 08:45:09;;;;;;;16.2;14.8;;;;;;;24.7;51.7;101390;;;;
2021/06/27 08:47:09;;;;;;;16.2;14.8;;;;;;;24.3;51.8;101390;;;;
2021/06/27 08:49:09;;;;;;;16.2;14.8;;;;;;;24.4;52.4;101390;;;;
2021/06/27 08:51:09;;;;;;;16.2;14.8;;;;;;;24.8;51.9;101380;;;;
2021/06/27 08:53:09;;;;;;;16.2;14.8;;;;;;;24.7;52.0;101380;;;;
2021/06/27 08:55:09;;;;;;;16.5;15.1;;;;;;;24.8;51.7;101370;;;;
2021/06/27 08:59:09;;;;;;;16.5;15.1;;;;;;;24.9;51.9;101370;;;;
2021/06/27 09:03:10;;;;;;;16.5;15.1;;;;;;;25.0;51.2;101370;;;;
2021/06/27 09:09:09;;;;;;;16.5;15.1;;;;;;;25.1;51.6;101370;;;;
2021/06/27 09:11:09;;;;;;;16.5;15.1;;;;;;;25.2;51.6;101370;;;;
2021/06/27 09:13:09;;;;;;;16.5;15.1;;;;;;;25.3;51.2;101370;;;;
2021/06/27 09:15:09;;;;;;;16.7;15.3;;;;;;;25.5;50.7;101360;;;;
2021/06/27 09:17:09;;;;;;;16.7;15.3;;;;;;;25.6;51.0;101370;;;;
2021/06/27 09:21:09;;;;;;;16.7;15.3;;;;;;;25.8;50.6;101360;;;;
2021/06/27 09:23:09;;;;;;;16.7;15.3;;;;;;;25.6;50.9;101360;;;;
2021/06/27 09:25:09;;;;;;;16.7;15.3;;;;;;;25.7;50.8;101360;;;;
2021/06/27 09:27:09;;;;;;;16.7;15.3;;;;;;;25.6;50.4;101360;;;;
2021/06/27 09:29:09;;;;;;;16.7;15.3;;;;;;;25.7;50.5;101350;;;;
2021/06/27 09:31:09;;;;;;;16.7;15.3;;;;;;;25.8;50.1;101350;;;;
2021/06/27 09:33:10;;;;;;;16.7;15.3;;;;;;;26.1;50.2;101350;;;;
2021/06/27 09:35:09;;;;;;;17.4;15.8;;;;;;;26.0;49.4;101350;;;;
2021/06/27 09:39:09;;;;;;;17.4;15.8;;;;;;;25.8;49.9;101350;;;;
2021/06/27 09:41:09;;;;;;;17.4;15.8;;;;;;;26.0;49.5;101340;;;;
2021/06/27 09:43:09;;;;;;;17.4;15.8;;;;;;;25.9;49.8;101340;;;;
2021/06/27 09:45:09;;;;;;;17.4;15.8;;;;;;;26.2;49.9;101340;;;;
2021/06/27 09:49:10;;;;;;;17.4;15.8;;;;;;;26.4;49.7;101340;;;;
2021/06/27 09:51:09;;;;;;;17.4;15.8;;;;;;;26.6;48.3;101340;;;;
2021/06/27 09:53:09;;;;;;;17.4;15.8;;;;;;;26.3;49.2;101340;;;;
2021/06/27 09:55:09;;;;;;;18.8;17.2;;;;;;;26.0;50.3;101340;;;;
2021/06/27 09:57:09;;;;;;;18.8;17.2;;;;;;;25.9;50.6;101340;;;;
2021/06/27 09:59:09;;;;;;;18.8;17.2;;;;;;;26.2;50.4;101330;;;;
2021/06/27 10:01:09;;;;;;;18.8;17.2;;;;;;;26.3;49.6;101330;;;;
2021/06/27 10:03:10;;;;;;;18.8;17.2;;;;;;;26.4;49.6;101320;;;;
2021/06/27 10:05:09;;;;;;;18.8;17.2;;;;;;;26.6;49.9;101320;;;;
2021/06/27 10:09:09;;;;;;;18.8;17.2;;;;;;;26.5;49.2;101310;;;;
2021/06/27 10:10:59;;;;;;;18.8;17.2;;;;;;;26.5;49.2;101310;;;;
2021/06/27 10:13:09;;;;;;;18.8;17.2;;;;;;;26.6;49.7;101310;;;;
2021/06/27 10:15:09;;;;;;;18.2;16.6;;;;;;;26.8;49.1;101310;;;;
2021/06/27 10:17:09;;;;;;;18.2;16.6;;;;;;;26.9;49.1;101310;;;;
2021/06/27 10:19:09;;;;;;;18.2;16.6;;;;;;;27.1;49.1;101310;;;;
2021/06/27 10:21:10;;;;;;;18.2;16.6;;;;;;;27.3;47.8;101300;;;;
2021/06/27 10:23:09;;;;;;;18.2;16.6;;;;;;;27.2;48.6;101300;;;;
2021/06/27 10:27:09;;;;;;;18.2;16.6;;;;;;;27.3;47.2;101300;;;;
2021/06/27 10:29:09;;;;;;;18.2;16.6;;;;;;;27.2;47.5;101290;;;;
2021/06/27 10:31:11;;;;;;;18.2;16.6;;;;;;;27.5;47.4;101290;;;;
2021/06/27 10:33:09;;;;;;;18.2;16.6;;;;;;;27.4;46.3;101290;;;;
2021/06/27 10:35:09;;;;;;;13.8;12.7;;;;;;;27.3;44.8;101290;;;;
2021/06/27 10:37:09;;;;;;;13.8;12.7;;;;;;;27.5;45.4;101280;;;;
2021/06/27 10:39:09;;;;;;;13.8;12.7;;;;;;;27.2;46.7;101280;;;;
2021/06/27 10:43:09;;;;;;;13.8;12.7;;;;;;;27.0;46.7;101280;;;;
2021/06/27 10:45:09;;;;;;;13.8;12.7;;;;;;;27.1;46.5;101280;;;;
2021/06/27 10:49:09;;;;;;;13.8;12.7;;;;;;;27.0;46.2;101280;;;;
2021/06/27 10:51:09;;;;;;;13.8;12.7;;;;;;;27.2;47.8;101280;;;;
2021/06/27 10:53:09;;;;;;;13.8;12.7;;;;;;;27.4;47.3;101270;;;;
2021/06/27 10:55:09;;;;;;;14.4;13.2;;;;;;;27.2;46.7;101270;;;;
2021/06/27 10:57:17;;;;;;;14.4;13.2;;;;;;;27.3;47.2;101280;;;;
2021/06/27 10:59:09;;;;;;;14.4;13.2;;;;;;;27.1;46.8;101270;;;;
2021/06/27 11:01:09;;;;;;;14.4;13.2;;;;;;;26.7;47.2;101280;;;;
2021/06/27 11:03:09;;;;;;;14.4;13.2;;;;;;;26.9;46.9;101280;;;;
2021/06/27 11:05:09;;;;;;;14.4;13.2;;;;;;;26.6;46.8;101270;;;;
2021/06/27 11:07:09;;;;;;;14.4;13.2;;;;;;;26.8;46.2;101270;;;;
2021/06/27 11:09:09;;;;;;;14.4;13.2;;;;;;;26.7;47.2;101270;;;;
2021/06/27 11:11:09;;;;;;;14.4;13.2;;;;;;;26.4;47.4;101270;;;;
2021/06/27 11:13:09;;;;;;;14.4;13.2;;;;;;;26.6;47.3;101270;;;;
2021/06/27 11:15:11;;;;;;;14.5;13.3;;;;;;;26.7;47.2;101270;;;;
2021/06/27 11:17:09;;;;;;;14.5;13.3;;;;;;;26.9;48.6;101260;;;;
2021/06/27 11:19:09;;;;;;;14.5;13.3;;;;;;;27.2;47.3;101260;;;;
2021/06/27 11:23:09;;;;;;;14.5;13.3;;;;;;;27.4;47.0;101260;;;;
2021/06/27 11:25:09;;;;;;;14.5;13.3;;;;;;;27.3;46.6;101260;;;;
2021/06/27 11:27:09;;;;;;;14.5;13.3;;;;;;;27.5;46.5;101260;;;;
2021/06/27 11:29:09;;;;;;;14.5;13.3;;;;;;;27.6;46.2;101260;;;;
2021/06/27 11:31:09;;;;;;;14.5;13.3;;;;;;;27.3;46.6;101260;;;;
2021/06/27 11:33:09;;;;;;;14.5;13.3;;;;;;;27.5;46.0;101250;;;;
2021/06/27 11:39:09;;;;;;;13.4;12.2;;;;;;;27.6;45.7;101250;;;;
2021/06/27 11:41:09;;;;;;;13.4;12.2;;;;;;;27.7;44.7;101250;;;;
2021/06/27 11:43:09;;;;;;;13.4;12.2;;;;;;;27.5;45.4;101250;;;;
2021/06/27 11:45:10;;;;;;;13.4;12.2;;;;;;;27.6;45.2;101250;;;;
2021/06/27 11:47:09;;;;;;;13.4;12.2;;;;;;;27.4;43.6;101250;;;;
2021/06/27 11:49:09;;;;;;;13.4;12.2;;;;;;;27.5;43.9;101250;;;;
2021/06/27 11:51:09;;;;;;;13.4;12.2;;;;;;;27.7;43.7;101250;;;;
2021/06/27 11:53:09;;;;;;;13.4;12.2;;;;;;;27.8;43.1;101240;;;;
2021/06/27 11:57:09;;;;;;;8.8;8.0;;;;;;;27.7;44.5;101240;;;;
2021/06/27 11:59:09;;;;;;;8.8;8.0;;;;;;;27.8;43.2;101240;;;;
2021/06/27 12:05:09;;;;;;;8.8;8.0;;;;;;;27.6;42.3;101240;;;;
2021/06/27 12:07:09;;;;;;;8.8;8.0;;;;;;;27.9;43.1;101240;;;;
2021/06/27 12:09:09;;;;;;;8.8;8.0;;;;;;;27.8;42.1;101240;;;;
2021/06/27 12:11:09;;;;;;;8.8;8.0;;;;;;;27.7;42.6;101240;;;;
2021/06/27 12:13:09;;;;;;;8.8;8.0;;;;;;;27.5;43.5;101240;;;;
2021/06/27 12:15:09;;;;;;;8.7;8.0;;;;;;;27.7;42.8;101240;;;;
2021/06/27 12:17:09;;;;;;;8.7;8.0;;;;;;;27.8;42.2;101240;;;;
2021/06/27 12:19:09;;;;;;;8.7;8.0;;;;;;;27.9;41.9;101240;;;;
2021/06/27 12:21:12;;;;;;;8.7;8.0;;;;;;;27.5;42.2;101240;;;;
2021/06/27 12:23:09;;;;;;;8.7;8.0;;;;;;;27.6;43.2;101230;;;;
2021/06/27 12:25:09;;;;;;;8.7;8.0;;;;;;;27.9;43.3;101240;;;;
2021/06/27 12:27:09;;;;;;;8.7;8.0;;;;;;;27.5;42.1;101230;;;;
2021/06/27 12:29:09;;;;;;;8.7;8.0;;;;;;;27.6;42.6;101230;;;;
2021/06/27 12:31:12;;;;;;;8.7;8.0;;;;;;;27.7;41.5;101230;;;;
2021/06/27 12:35:09;;;;;;;7.9;7.3;;;;;;;28.0;41.4;101220;;;;
2021/06/27 12:37:09;;;;;;;7.9;7.3;;;;;;;27.9;40.3;101220;;;;
2021/06/27 12:39:09;;;;;;;7.9;7.3;;;;;;;28.0;41.7;101220;;;;
2021/06/27 12:41:10;;;;;;;7.9;7.3;;;;;;;28.1;41.6;101220;;;;
2021/06/27 12:43:09;;;;;;;7.9;7.3;;;;;;;28.2;41.9;101220;;;;
2021/06/27 12:45:09;;;;;;;7.9;7.3;;;;;;;28.3;41.4;101220;;;;
2021/06/27 12:47:09;;;;;;;7.9;7.3;;;;;;;28.4;41.6;101220;;;;
2021/06/27 12:49:09;;;;;;;7.9;7.3;;;;;;;28.5;40.4;101220;;;;
2021/06/27 12:51:09;;;;;;;7.9;7.3;;;;;;;28.4;39.7;101230;;;;
2021/06/27 12:53:09;;;;;;;7.9;7.3;;;;;;;28.0;40.3;101220;;;;
2021/06/27 12:55:09;;;;;;;6.7;6.1;;;;;;;28.1;39.1;101210;;;;
2021/06/27 12:59:09;;;;;;;6.7;6.1;;;;;;;28.2;40.6;101210;;;;
2021/06/27 13:01:09;;;;;;;6.7;6.1;;;;;;;28.1;40.0;101210;;;;
2021/06/27 13:03:09;;;;;;;6.7;6.1;;;;;;;28.3;40.1;101200;;;;
2021/06/27 13:05:09;;;;;;;6.7;6.1;;;;;;;28.1;39.2;101200;;;;
2021/06/27 13:09:09;;;;;;;6.7;6.1;;;;;;;28.3;39.8;101190;;;;
2021/06/27 13:11:10;;;;;;;6.7;6.1;;;;;;;28.5;39.4;101190;;;;
2021/06/27 13:13:19;;;;;;;6.7;6.1;;;;;;;28.3;41.2;101190;;;;
2021/06/27 13:15:09;;;;;;;7.6;7.0;;;;;;;28.2;40.1;101190;;;;
2021/06/27 13:19:09;;;;;;;7.6;7.0;;;;;;;28.4;39.5;101180;;;;
2021/06/27 13:23:09;;;;;;;7.6;7.0;;;;;;;28.6;40.4;101180;;;;
2021/06/27 13:27:09;;;;;;;7.6;7.0;;;;;;;28.5;39.1;101170;;;;
2021/06/27 13:29:09;;;;;;;7.6;7.0;;;;;;;28.6;38.9;101170;;;;
2021/06/27 13:31:09;;;;;;;7.6;7.0;;;;;;;28.5;39.9;101170;;;;
2021/06/27 13:33:09;;;;;;;7.6;7.0;;;;;;;28.2;39.8;101170;;;;
2021/06/27 13:35:09;;;;;;;7.8;7.1;;;;;;;28.5;39.5;101170;;;;
2021/06/27 13:39:09;;;;;;;7.8;7.1;;;;;;;28.7;40.4;101170;;;;
2021/06/27 13:41:10;;;;;;;7.8;7.1;;;;;;;28.5;38.6;101160;;;;
2021/06/27 13:43:09;;;;;;;7.8;7.1;;;;;;;28.4;38.4;101170;;;;
2021/06/27 13:47:09;;;;;;;7.8;7.1;;;;;;;28.7;39.1;101160;;;;
2021/06/27 13:49:09;;;;;;;7.8;7.1;;;;;;;28.9;37.5;101170;;;;
2021/06/27 13:51:09;;;;;;;7.8;7.1;;;;;;;28.8;37.6;101160;;;;
2021/06/27 13:53:09;;;;;;;7.8;7.1;;;;;;;29.0;38.0;101160;;;;
2021/06/27 13:57:09;;;;;;;6.1;5.6;;;;;;;29.1;39.2;101150;;;;
2021/06/27 13:59:10;;;;;;;6.1;5.6;;;;;;;29.0;38.7;101150;;;;
2021/06/27 14:03:09;;;;;;;6.1;5.6;;;;;;;29.1;36.4;101140;;;;
2021/06/27 14:05:09;;;;;;;6.1;5.6;;;;;;;29.0;37.6;101130;;;;
2021/06/27 14:07:09;;;;;;;6.1;5.6;;;;;;;29.4;36.6;101130;;;;
2021/06/27 14:09:10;;;;;;;6.1;5.6;;;;;;;29.8;36.3;101130;;;;
2021/06/27 14:11:09;;;;;;;6.1;5.6;;;;;;;29.9;37.5;101120;;;;
2021/06/27 14:13:09;;;;;;;6.1;5.6;;;;;;;30.2;37.9;101120;;;;
2021/06/27 14:15:09;;;;;;;6.7;6.0;;;;;;;30.4;35.9;101120;;;;
2021/06/27 14:17:09;;;;;;;6.7;6.0;;;;;;;29.9;35.5;101120;;;;
2021/06/27 14:21:11;;;;;;;6.7;6.0;;;;;;;30.0;35.2;101110;;;;
2021/06/27 14:29:09;;;;;;;6.7;6.0;;;;;;;29.9;35.5;101100;;;;
2021/06/27 14:31:09;;;;;;;6.7;6.0;;;;;;;30.3;34.5;101100;;;;
2021/06/27 14:33:09;;;;;;;6.7;6.0;;;;;;;30.2;35.0;101110;;;;
2021/06/27 14:35:10;;;;;;;6.6;6.1;;;;;;;29.9;34.7;101090;;;;
2021/06/27 14:37:09;;;;;;;6.6;6.1;;;;;;;29.7;36.5;101090;;;;
2021/06/27 14:39:09;;;;;;;6.6;6.1;;;;;;;29.6;36.2;101090;;;;
2021/06/27 14:41:10;;;;;;;6.6;6.1;;;;;;;29.3;35.9;101090;;;;
2021/06/27 14:43:09;;;;;;;6.6;6.1;;;;;;;29.4;36.9;101090;;;;
2021/06/27 14:45:09;;;;;;;6.6;6.1;;;;;;;29.6;35.2;101090;;;;
2021/06/27 14:47:09;;;;;;;6.6;6.1;;;;;;;29.3;35.2;101090;;;;
2021/06/27 14:49:09;;;;;;;6.6;6.1;;;;;;;29.1;35.8;101080;;;;
2021/06/27 14:51:12;;;;;;;6.6;6.1;;;;;;;29.0;37.0;101070;;;;
2021/06/27 14:53:10;;;;;;;6.6;6.1;;;;;;;28.8;38.3;101070;;;;
2021/06/27 14:55:09;;;;;;;7.1;6.5;;;;;;;28.7;37.4;101080;;;;
2021/06/27 14:59:09;;;;;;;7.1;6.5;;;;;;;28.5;37.8;101090;;;;
2021/06/27 15:03:09;;;;;;;7.1;6.5;;;;;;;28.6;38.1;101090;;;;
2021/06/27 15:05:09;;;;;;;7.1;6.5;;;;;;;28.4;37.6;101090;;;;
2021/06/27 15:07:09;;;;;;;7.1;6.5;;;;;;;28.3;38.7;101100;;;;
2021/06/27 15:09:09;;;;;;;7.1;6.5;;;;;;;28.1;38.9;101100;;;;
2021/06/27 15:15:09;;;;;;;8.3;7.6;;;;;;;28.2;38.2;101090;;;;
2021/06/27 15:17:09;;;;;;;8.3;7.6;;;;;;;28.1;38.6;101090;;;;
2021/06/27 15:19:09;;;;;;;8.3;7.6;;;;;;;28.0;38.9;101090;;;;
2021/06/27 15:21:09;;;;;;;8.3;7.6;;;;;;;27.9;38.7;101100;;;;
2021/06/27 15:25:13;;;;;;;8.3;7.6;;;;;;;27.8;38.7;101100;;;;
2021/06/27 15:27:09;;;;;;;8.3;7.6;;;;;;;27.5;39.2;101100;;;;
2021/06/27 15:33:09;;;;;;;8.3;7.6;;;;;;;27.4;41.1;101100;;;;
2021/06/27 15:35:09;;;;;;;8.3;7.6;;;;;;;27.2;40.1;101090;;;;
2021/06/27 15:37:10;;;;;;;8.3;7.6;;;;;;;27.3;40.5;101090;;;;
2021/06/27 15:39:09;;;;;;;8.3;7.6;;;;;;;27.2;41.0;101090;;;;
2021/06/27 15:41:09;;;;;;;8.3;7.6;;;;;;;27.4;40.8;101080;;;;
2021/06/27 15:43:09;;;;;;;8.3;7.6;;;;;;;27.3;40.2;101080;;;;
2021/06/27 15:45:09;;;;;;;8.3;7.6;;;;;;;27.4;40.9;101080;;;;
2021/06/27 15:49:09;;;;;;;8.3;7.6;;;;;;;27.5;41.8;101080;;;;
2021/06/27 15:53:10;;;;;;;8.3;7.6;;;;;;;27.7;41.4;101070;;;;
2021/06/27 15:55:09;;;;;;;8.4;7.7;;;;;;;27.5;41.0;101080;;;;
2021/06/27 15:59:09;;;;;;;8.4;7.7;;;;;;;27.4;41.3;101070;;;;
2021/06/27 16:03:09;;;;;;;8.4;7.7;;;;;;;27.3;41.5;101060;;;;
2021/06/27 16:05:12;;;;;;;8.4;7.7;;;;;;;27.1;41.8;101060;;;;
2021/06/27 16:07:09;;;;;;;8.4;7.7;;;;;;;27.2;41.6;101060;;;;
2021/06/27 16:09:09;;;;;;;8.4;7.7;;;;;;;27.1;42.3;101050;;;;
2021/06/27 16:11:15;;;;;;;8.4;7.7;;;;;;;27.3;42.0;101050;;;;
2021/06/27 16:13:09;;;;;;;8.4;7.7;;;;;;;27.5;41.5;101050;;;;
2021/06/27 16:15:11;;;;;;;7.0;6.3;;;;;;;27.4;41.7;101050;;;;
2021/06/27 16:17:09;;;;;;;7.0;6.3;;;;;;;27.5;41.5;101050;;;;
2021/06/27 16:21:09;;;;;;;7.0;6.3;;;;;;;27.4;41.2;101040;;;;
2021/06/27 16:27:09;;;;;;;7.0;6.3;;;;;;;27.5;41.7;101050;;;;
2021/06/27 16:29:09;;;;;;;7.0;6.3;;;;;;;27.3;41.6;101080;;;;
2021/06/27 16:31:09;;;;;;;7.0;6.3;;;;;;;26.8;43.0;101100;;;;
2021/06/27 16:33:09;;;;;;;7.0;6.3;;;;;;;27.2;42.8;101120;;;;
2021/06/27 16:35:09;;;;;;;6.5;6.0;;;;;;;27.0;44.4;101140;;;;
2021/06/27 16:37:09;;;;;;;6.5;6.0;;;;;;;26.8;45.9;101130;;;;
2021/06/27 16:41:09;;;;;;;6.5;6.0;;;;;;;26.4;50.8;101170;;;;
2021/06/27 16:43:09;;;;;;;6.5;6.0;;;;;;;26.5;52.0;101180;;;;
2021/06/27 16:47:09;;;;;;;6.5;6.0;;;;;;;26.1;58.5;101170;;;;
2021/06/27 16:49:09;;;;;;;6.5;6.0;;;;;;;25.9;58.0;101160;;;;
2021/06/27 16:51:09;;;;;;;6.5;6.0;;;;;;;25.5;58.0;101160;;;;
2021/06/27 16:53:09;;;;;;;6.5;6.0;;;;;;;25.1;60.9;101170;;;;
2021/06/27 16:55:09;;;;;;;15.3;13.8;;;;;;;25.2;61.6;101190;;;;
2021/06/27 16:57:09;;;;;;;15.3;13.8;;;;;;;25.3;60.6;101210;;;;
2021/06/27 16:59:09;;;;;;;15.3;13.8;;;;;;;25.2;61.6;101210;;;;
2021/06/27 17:01:09;;;;;;;15.3;13.8;;;;;;;24.5;62.6;101210;;;;
2021/06/27 17:03:09;;;;;;;15.3;13.8;;;;;;;24.3;64.0;101220;;;;
2021/06/27 17:07:09;;;;;;;15.3;13.8;;;;;;;24.4;63.3;101230;;;;
2021/06/27 17:09:10;;;;;;;15.3;13.8;;;;;;;24.3;63.5;101230;;;;
2021/06/27 17:11:09;;;;;;;15.3;13.8;;;;;;;24.2;65.5;101230;;;;
2021/06/27 17:13:10;;;;;;;15.3;13.8;;;;;;;24.0;66.2;101240;;;;
2021/06/27 17:15:09;;;;;;;12.2;11.1;;;;;;;23.7;66.0;101240;;;;
2021/06/27 17:17:09;;;;;;;12.2;11.1;;;;;;;23.4;66.7;101240;;;;
2021/06/27 17:21:09;;;;;;;12.2;11.1;;;;;;;22.8;67.9;101250;;;;
2021/06/27 17:23:11;;;;;;;12.2;11.1;;;;;;;22.3;68.2;101240;;;;
2021/06/27 17:25:10;;;;;;;12.2;11.1;;;;;;;22.1;69.0;101250;;;;
2021/06/27 17:33:09;;;;;;;12.2;11.1;;;;;;;21.9;69.1;101250;;;;
2021/06/27 17:54:21;;;;;;;6.9;6.3;;;;;;;22.3;67.0;101260;;;;
2021/06/27 17:56:24;;;;;;;6.9;6.3;;;;;;;22.1;67.7;101260;;;;
2021/06/27 18:35:50;;;;;;;9.3;8.5;;;;;;;21.6;69.2;101240;;;;
2021/06/27 18:37:50;;;;;;;9.3;8.5;;;;;;;21.9;68.1;101240;;;;
2021/06/27 18:41:09;;;;;;;9.3;8.5;;;;;;;21.9;68.0;101240;;;;